Dewar, Iowa
Current Conditions -  °F | °C
As of 9:09 AM on Saturday 20 Dec 2014 (Local Time) from KALO Reporting Station
Haze Haze  
Wind Chill: 22°   Ceiling: 500
Heat Index: 30°   Visibility: 1.5mi
Dew Point: 29°   Wind: 8mph
Humidity: 96%   Direction: 150°SSE
Pressure: 30.19"   Gusts: NA
Location:  42.53°N, 92.22°W
Report Text: KALO 201509Z 15007KT 1 1/2SM BR OVC005 M01/M02 A3019 RMK AO2 I1000 T10111017
Loading
Personal Weather Stations






























Interactive Weather Map New forecast layout! Learn more

10-Day Weather Forecast

Advertisements
Track Severe Weather on mobile